Time;durP1;ratioP1;P1;durP2;ratioP2;P2;SDS_P1;SDS_P2;PMS_P1;PMS_P2;Temp;Humidity;BMP_temperature;BMP_pressure;BME280_temperature;BME280_humidity;BME280_pressure;Samples;Min_cycle;Max_cycle;Signal;HPM_P1;HPM_P2
2022/03/31 00:00:40;;;;;;;29.48;10.73;;;13.50;71.50;;;;;;5011517;28;20018;-75
2022/03/31 00:03:08;;;;;;;26.25;10.93;;;13.60;71.20;;;;;;4999224;28;20034;-75
2022/03/31 00:05:34;;;;;;;26.63;10.90;;;13.60;71.20;;;;;;5001221;28;20018;-75
2022/03/31 00:08:09;;;;;;;32.53;12.05;;;13.60;71.30;;;;;;5013975;28;20030;-73
2022/03/31 00:10:46;;;;;;;37.75;13.60;;;13.70;71.20;;;;;;5015273;28;20097;-76
2022/03/31 00:13:15;;;;;;;44.50;13.55;;;13.70;71.10;;;;;;5015202;28;20506;-72
2022/03/31 00:15:41;;;;;;;27.98;13.27;;;13.80;71.20;;;;;;5015385;28;20014;-74
2022/03/31 00:18:09;;;;;;;31.23;12.02;;;13.80;71.70;;;;;;5015025;28;20068;-75
2022/03/31 00:20:35;;;;;;;44.53;18.48;;;13.80;71.00;;;;;;5014777;28;20064;-74
2022/03/31 00:23:01;;;;;;;37.42;15.35;;;13.80;70.70;;;;;;4997405;28;20473;-75
2022/03/31 00:25:28;;;;;;;42.10;15.93;;;13.90;70.70;;;;;;4995465;28;20023;-74
2022/03/31 00:27:57;;;;;;;40.97;15.90;;;13.90;71.10;;;;;;4995293;28;20101;-75
2022/03/31 00:30:24;;;;;;;38.17;16.38;;;13.90;71.20;;;;;;5006987;28;20022;-73
2022/03/31 00:32:50;;;;;;;35.42;16.02;;;13.90;70.80;;;;;;5014685;28;20062;-75
2022/03/31 00:35:16;;;;;;;37.97;14.20;;;13.90;71.00;;;;;;5014252;28;20088;-75
2022/03/31 00:37:44;;;;;;;28.35;12.23;;;13.90;71.00;;;;;;5014310;28;20480;-74
2022/03/31 00:40:15;;;;;;;32.30;12.80;;;13.90;70.90;;;;;;5014007;28;20021;-76
2022/03/31 00:42:43;;;;;;;37.15;12.05;;;14.00;70.80;;;;;;5014410;28;20025;-73
2022/03/31 00:45:17;;;;;;;28.15;10.93;;;14.00;70.60;;;;;;5014282;28;20056;-74
2022/03/31 00:47:43;;;;;;;29.98;12.57;;;14.00;70.90;;;;;;5014539;28;20056;-73
2022/03/31 00:50:13;;;;;;;29.35;10.25;;;14.00;70.70;;;;;;5014168;28;20025;-74
2022/03/31 00:52:40;;;;;;;26.25;12.05;;;14.00;70.80;;;;;;5014139;28;20030;-73
2022/03/31 00:55:09;;;;;;;26.48;11.80;;;14.00;71.00;;;;;;5014144;28;20034;-73
2022/03/31 00:57:36;;;;;;;27.05;12.48;;;14.00;71.40;;;;;;5014493;28;20030;-73
2022/03/31 01:00:05;;;;;;;28.98;11.57;;;14.00;71.00;;;;;;5013569;28;20026;-72
2022/03/31 01:02:32;;;;;;;42.55;12.95;;;14.00;71.60;;;;;;5014159;28;20025;-71
2022/03/31 01:05:00;;;;;;;33.05;11.68;;;14.00;71.40;;;;;;5013903;28;20017;-72
2022/03/31 01:07:27;;;;;;;33.25;11.30;;;14.00;71.80;;;;;;5014267;28;20037;-73
2022/03/31 01:09:57;;;;;;;28.50;10.05;;;14.10;71.70;;;;;;5002443;28;20377;-72
2022/03/31 01:12:23;;;;;;;21.80;9.32;;;14.10;72.00;;;;;;4994562;28;20424;-73
2022/03/31 01:15:08;;;;;;;21.42;9.75;;;14.10;72.20;;;;;;4994609;28;20168;-74
2022/03/31 01:17:35;;;;;;;32.40;11.45;;;14.10;72.30;;;;;;5010740;28;20124;-71
2022/03/31 01:20:03;;;;;;;24.25;10.20;;;14.10;72.80;;;;;;5012202;28;20018;-75
2022/03/31 01:22:31;;;;;;;27.08;9.98;;;14.10;73.20;;;;;;5014139;28;20122;-74
2022/03/31 01:24:59;;;;;;;23.33;9.73;;;14.00;74.20;;;;;;5013777;28;20051;-74
2022/03/31 01:27:25;;;;;;;27.98;8.50;;;14.00;74.20;;;;;;5007505;28;20025;-75
2022/03/31 01:29:53;;;;;;;22.67;8.48;;;14.00;74.10;;;;;;4993798;28;20064;-74
2022/03/31 01:32:19;;;;;;;29.08;9.32;;;14.00;73.90;;;;;;4993972;28;20053;-73
2022/03/31 01:34:46;;;;;;;25.25;11.25;;;14.00;74.50;;;;;;4994020;28;20026;-73
2022/03/31 01:37:15;;;;;;;23.33;8.85;;;14.00;74.40;;;;;;5005177;28;20021;-72
2022/03/31 01:39:41;;;;;;;27.77;8.90;;;14.00;74.10;;;;;;5028458;28;20075;-74
2022/03/31 01:42:08;;;;;;;25.73;8.95;;;14.00;74.50;;;;;;5012690;28;20472;-75
2022/03/31 01:44:35;;;;;;;20.73;7.03;;;14.00;74.60;;;;;;5012830;28;20523;-75
2022/03/31 01:47:01;;;;;;;18.98;8.07;;;14.00;75.40;;;;;;5013335;28;20065;-75
2022/03/31 01:49:27;;;;;;;17.40;6.80;;;14.00;76.00;;;;;;5012845;28;20480;-74
2022/03/31 01:51:53;;;;;;;18.60;6.70;;;14.00;76.50;;;;;;5012923;28;20025;-74
2022/03/31 01:54:19;;;;;;;21.33;7.05;;;14.00;77.10;;;;;;5013154;28;20484;-74
2022/03/31 01:56:45;;;;;;;23.63;7.55;;;14.00;77.70;;;;;;5013298;28;20476;-74
2022/03/31 01:59:11;;;;;;;22.90;8.32;;;14.00;77.50;;;;;;5013110;28;20022;-72
2022/03/31 02:01:37;;;;;;;18.95;8.35;;;14.00;77.90;;;;;;5013230;28;20026;-73
2022/03/31 02:04:03;;;;;;;20.23;8.40;;;13.90;78.70;;;;;;5011745;28;20616;-76
2022/03/31 02:06:29;;;;;;;21.05;7.90;;;13.90;79.60;;;;;;5008146;28;20391;-77
2022/03/31 02:08:56;;;;;;;19.75;6.15;;;13.80;82.50;;;;;;5012237;28;20029;-75
2022/03/31 02:11:23;;;;;;;17.25;7.07;;;13.80;86.70;;;;;;5012577;28;20404;-76
2022/03/31 02:13:49;;;;;;;18.73;6.43;;;13.80;90.80;;;;;;5012879;28;20452;-76
2022/03/31 02:16:15;;;;;;;15.93;6.07;;;13.70;94.00;;;;;;5012423;28;20025;-73
2022/03/31 02:18:41;;;;;;;15.05;5.55;;;13.70;95.70;;;;;;5012625;28;20461;-74
2022/03/31 02:21:07;;;;;;;18.77;6.80;;;13.60;97.50;;;;;;5012009;28;20056;-75
2022/03/31 02:23:33;;;;;;;20.45;5.88;;;13.60;99.90;;;;;;5012058;28;20033;-75
2022/03/31 02:25:59;;;;;;;20.40;6.55;;;13.50;99.90;;;;;;5012437;28;20033;-74
2022/03/31 02:28:35;;;;;;;19.98;6.00;;;13.40;99.90;;;;;;5012486;28;20022;-74
2022/03/31 02:31:01;;;;;;;23.02;6.45;;;13.30;99.90;;;;;;5027451;28;20029;-74
2022/03/31 02:33:32;;;;;;;14.85;5.60;;;13.30;99.90;;;;;;5012558;28;20030;-73
2022/03/31 02:35:58;;;;;;;15.32;6.13;;;13.20;99.90;;;;;;4994775;28;20052;-72
2022/03/31 02:38:24;;;;;;;17.50;4.75;;;13.20;99.90;;;;;;5012235;28;20034;-74
2022/03/31 02:40:50;;;;;;;18.52;6.00;;;13.20;99.90;;;;;;5012284;28;20037;-73
2022/03/31 02:43:16;;;;;;;13.30;5.45;;;13.10;99.90;;;;;;5012032;28;20033;-73
2022/03/31 02:45:41;;;;;;;17.67;4.85;;;13.10;99.90;;;;;;5011943;28;20045;-73
2022/03/31 02:48:08;;;;;;;20.27;5.20;;;13.10;99.90;;;;;;5011903;28;20506;-74
2022/03/31 02:50:33;;;;;;;12.70;5.13;;;13.10;99.90;;;;;;5011509;28;20052;-73
2022/03/31 02:55:44;;;;;;;22.55;6.97;;;13.10;99.90;;;;;;5011615;28;20462;-74
2022/03/31 02:58:10;;;;;;;23.23;11.05;;;13.10;99.90;;;;;;5012139;28;20084;-74
2022/03/31 03:00:38;;;;;;;27.38;12.60;;;13.10;99.90;;;;;;5012135;28;20046;-74
2022/03/31 03:03:04;;;;;;;29.30;10.15;;;13.10;99.90;;;;;;5026537;28;20034;-74
2022/03/31 03:05:36;;;;;;;28.30;11.65;;;13.10;99.90;;;;;;5011936;28;20026;-73
2022/03/31 03:08:04;;;;;;;25.77;12.15;;;13.00;99.90;;;;;;5012010;28;20088;-74
2022/03/31 03:10:31;;;;;;;29.42;11.98;;;13.00;99.90;;;;;;5011746;28;20025;-72
2022/03/31 03:12:57;;;;;;;22.77;11.10;;;13.00;99.90;;;;;;5011524;28;20091;-74
2022/03/31 03:15:25;;;;;;;25.10;12.80;;;13.00;99.90;;;;;;5011857;28;20351;-74
2022/03/31 03:17:51;;;;;;;25.33;14.18;;;13.00;99.90;;;;;;5011693;28;20121;-74
2022/03/31 03:20:17;;;;;;;34.75;15.05;;;13.00;99.90;;;;;;5011500;28;20030;-74
2022/03/31 03:22:45;;;;;;;36.05;18.45;;;13.00;99.90;;;;;;5011774;28;20080;-73
2022/03/31 03:25:18;;;;;;;32.50;15.85;;;13.00;99.90;;;;;;5011597;28;20030;-73
2022/03/31 03:27:46;;;;;;;21.75;10.32;;;13.00;99.90;;;;;;5011671;28;20030;-74
2022/03/31 03:30:13;;;;;;;32.35;14.30;;;12.90;99.90;;;;;;5011396;28;20034;-74
2022/03/31 03:32:51;;;;;;;30.90;14.55;;;12.90;99.90;;;;;;5011314;28;20404;-73
2022/03/31 03:35:19;;;;;;;24.83;14.00;;;12.90;99.90;;;;;;5011812;28;20022;-73
2022/03/31 03:37:48;;;;;;;28.83;15.98;;;12.80;99.90;;;;;;5010766;28;20040;-70
2022/03/31 03:40:15;;;;;;;23.08;11.55;;;12.80;99.90;;;;;;5002951;28;20041;-74
2022/03/31 03:42:42;;;;;;;19.05;7.88;;;12.80;99.90;;;;;;4995688;28;20065;-74
2022/03/31 03:45:10;;;;;;;18.63;7.80;;;12.80;99.90;;;;;;5007502;28;20053;-74
2022/03/31 03:47:36;;;;;;;23.45;8.07;;;12.70;99.90;;;;;;5014991;28;20076;-74
2022/03/31 03:50:03;;;;;;;17.70;8.32;;;12.70;99.90;;;;;;5015311;28;20455;-72
2022/03/31 03:52:30;;;;;;;21.25;9.30;;;12.70;99.90;;;;;;5014517;28;20034;-74
2022/03/31 03:54:57;;;;;;;28.60;12.85;;;12.70;99.90;;;;;;5012271;28;20018;-69
2022/03/31 03:57:23;;;;;;;28.33;13.93;;;12.70;99.90;;;;;;5005447;28;20075;-74
2022/03/31 03:59:49;;;;;;;31.92;14.50;;;12.70;99.90;;;;;;5011882;28;20379;-72
2022/03/31 04:02:15;;;;;;;28.45;10.90;;;12.70;99.90;;;;;;5014565;28;20026;-72
2022/03/31 04:04:41;;;;;;;28.52;9.65;;;12.80;99.90;;;;;;5007366;28;20716;-72
2022/03/31 04:07:07;;;;;;;28.40;12.55;;;12.80;99.90;;;;;;5008208;28;20041;-74
2022/03/31 04:09:33;;;;;;;29.77;13.60;;;12.90;99.90;;;;;;5010773;28;20084;-71
2022/03/31 04:11:59;;;;;;;33.30;12.52;;;12.90;99.90;;;;;;5010082;28;20042;-69
2022/03/31 04:14:24;;;;;;;36.08;11.00;;;12.90;99.90;;;;;;5013911;28;20554;-71
2022/03/31 04:16:51;;;;;;;29.33;9.55;;;12.90;99.90;;;;;;5014891;28;20017;-72
2022/03/31 04:19:17;;;;;;;24.50;8.43;;;12.90;99.90;;;;;;5013799;28;20065;-75
2022/03/31 04:21:43;;;;;;;20.23;8.00;;;12.90;99.90;;;;;;5013806;28;20030;-74
2022/03/31 04:24:09;;;;;;;29.58;8.48;;;12.90;99.90;;;;;;5014567;28;20760;-71
2022/03/31 04:26:35;;;;;;;20.85;8.93;;;13.00;99.90;;;;;;5014668;28;20087;-73
2022/03/31 04:29:08;;;;;;;26.20;10.40;;;13.00;99.90;;;;;;5014148;28;20030;-73
2022/03/31 04:31:45;;;;;;;36.70;17.85;;;13.00;99.90;;;;;;5013530;28;20070;-71
2022/03/31 04:34:14;;;;;;;34.33;15.88;;;12.90;99.90;;;;;;5014389;28;20025;-73
2022/03/31 04:36:42;;;;;;;37.95;17.25;;;12.90;99.90;;;;;;5014181;28;20435;-72
2022/03/31 04:39:08;;;;;;;32.03;15.18;;;12.90;99.90;;;;;;4997731;28;20021;-73
2022/03/31 04:41:34;;;;;;;32.47;14.10;;;12.80;99.90;;;;;;5014548;28;20064;-73
2022/03/31 04:44:00;;;;;;;25.83;12.18;;;12.80;99.90;;;;;;5012658;28;20054;-72
2022/03/31 04:46:26;;;;;;;38.45;15.10;;;12.80;99.90;;;;;;5013579;28;20034;-74
2022/03/31 04:48:52;;;;;;;40.58;13.13;;;12.80;99.90;;;;;;5028962;28;20084;-73
2022/03/31 04:51:18;;;;;;;27.15;12.88;;;12.80;99.90;;;;;;5011913;28;20037;-71
2022/03/31 04:53:43;;;;;;;27.38;10.68;;;12.90;99.90;;;;;;5012168;28;20025;-73
2022/03/31 04:56:09;;;;;;;24.25;9.68;;;12.90;99.90;;;;;;5014214;28;20037;-72
2022/03/31 04:58:36;;;;;;;24.77;10.63;;;13.00;99.90;;;;;;5013996;28;20022;-73
2022/03/31 05:01:04;;;;;;;27.85;10.07;;;13.00;99.90;;;;;;5013138;28;20445;-73
2022/03/31 05:03:29;;;;;;;20.98;7.53;;;13.00;99.90;;;;;;5014007;28;20029;-73
2022/03/31 05:05:55;;;;;;;21.15;9.25;;;13.10;99.90;;;;;;5013793;28;20033;-73
2022/03/31 05:08:21;;;;;;;23.92;9.38;;;13.10;99.90;;;;;;5013350;28;20453;-73
2022/03/31 05:10:47;;;;;;;26.80;10.52;;;13.10;99.90;;;;;;5013200;28;20017;-72
2022/03/31 05:13:13;;;;;;;25.75;9.15;;;13.10;99.90;;;;;;4996020;28;20046;-73
2022/03/31 05:15:39;;;;;;;23.40;8.25;;;13.20;99.90;;;;;;5013227;28;20052;-73
2022/03/31 05:18:05;;;;;;;34.35;8.05;;;13.20;99.90;;;;;;5013129;28;20591;-73
2022/03/31 05:20:31;;;;;;;25.83;9.38;;;13.30;99.90;;;;;;5012393;28;20018;-73
2022/03/31 05:22:57;;;;;;;19.50;7.53;;;13.30;99.90;;;;;;5012689;28;20026;-72
2022/03/31 05:25:23;;;;;;;20.80;9.20;;;13.30;99.90;;;;;;5013197;28;20029;-73
2022/03/31 05:27:52;;;;;;;22.00;8.57;;;13.40;99.90;;;;;;5012900;28;20675;-74
2022/03/31 05:30:21;;;;;;;25.40;6.55;;;13.40;99.90;;;;;;5012922;28;20033;-73
2022/03/31 05:32:47;;;;;;;18.25;5.95;;;13.50;99.90;;;;;;5004957;28;20456;-73
2022/03/31 05:35:13;;;;;;;17.88;6.00;;;13.50;99.90;;;;;;5013359;28;20557;-73
2022/03/31 05:37:40;;;;;;;18.00;6.65;;;13.60;99.90;;;;;;5012725;28;20053;-73
2022/03/31 05:40:08;;;;;;;19.52;6.60;;;13.60;99.90;;;;;;5012596;28;20062;-71
2022/03/31 05:42:35;;;;;;;20.33;8.40;;;13.70;99.90;;;;;;5012966;28;20061;-72
2022/03/31 05:45:02;;;;;;;23.58;10.65;;;13.70;99.90;;;;;;5012811;28;20518;-72
2022/03/31 05:47:28;;;;;;;40.28;16.33;;;13.80;99.90;;;;;;5013392;28;20539;-73
2022/03/31 05:49:54;;;;;;;24.25;8.77;;;13.80;99.90;;;;;;5012448;28;20034;-73
2022/03/31 05:52:21;;;;;;;21.23;8.35;;;13.90;99.90;;;;;;5012359;28;20037;-73
2022/03/31 05:54:48;;;;;;;26.63;10.68;;;13.90;99.90;;;;;;5012650;28;20053;-73
2022/03/31 05:57:14;;;;;;;25.90;8.30;;;14.00;99.90;;;;;;5011876;28;20057;-71
2022/03/31 05:59:41;;;;;;;22.55;8.75;;;14.00;99.90;;;;;;5012047;28;20026;-73
2022/03/31 06:02:08;;;;;;;24.17;9.65;;;14.00;99.90;;;;;;5012464;28;20424;-73
2022/03/31 06:04:34;;;;;;;21.42;7.90;;;14.00;99.90;;;;;;5011769;28;20472;-73
2022/03/31 06:07:00;;;;;;;21.40;8.77;;;14.10;99.90;;;;;;5012602;28;20057;-73
2022/03/31 06:09:25;;;;;;;30.33;10.52;;;14.10;99.90;;;;;;5012153;28;20396;-73
2022/03/31 06:11:51;;;;;;;22.83;9.15;;;14.10;99.90;;;;;;5012017;28;20137;-73
2022/03/31 06:14:17;;;;;;;29.08;11.88;;;14.20;99.90;;;;;;5012692;28;20525;-73
2022/03/31 06:16:43;;;;;;;37.88;14.10;;;14.30;99.90;;;;;;5011874;28;20488;-71
2022/03/31 06:19:09;;;;;;;24.75;10.20;;;14.40;99.90;;;;;;5012255;28;20025;-74
2022/03/31 06:21:36;;;;;;;17.42;7.18;;;14.40;99.90;;;;;;5010873;28;20435;-72
2022/03/31 06:24:03;;;;;;;28.95;8.30;;;14.40;99.90;;;;;;5012060;28;20065;-72
2022/03/31 06:26:30;;;;;;;18.98;6.57;;;14.50;99.90;;;;;;5012511;28;20026;-73
2022/03/31 06:28:56;;;;;;;21.40;7.68;;;14.50;99.90;;;;;;5012286;28;20052;-73
2022/03/31 06:31:24;;;;;;;22.30;8.00;;;14.50;99.90;;;;;;5012321;28;20065;-73
2022/03/31 06:33:50;;;;;;;22.80;8.45;;;14.50;99.90;;;;;;5012034;28;20532;-73
2022/03/31 06:36:16;;;;;;;22.13;8.38;;;14.50;99.90;;;;;;5011754;28;20038;-72
2022/03/31 06:38:43;;;;;;;24.45;7.78;;;14.50;99.90;;;;;;5011883;28;20033;-73
2022/03/31 06:41:10;;;;;;;18.52;7.00;;;14.50;99.90;;;;;;5011908;28;20026;-73
2022/03/31 06:43:42;;;;;;;22.00;8.00;;;14.60;99.90;;;;;;5012330;28;20400;-72
2022/03/31 06:46:09;;;;;;;25.50;8.40;;;14.70;99.90;;;;;;5012088;28;20049;-73
2022/03/31 06:48:38;;;;;;;24.00;6.95;;;14.80;99.90;;;;;;5011054;28;20275;-73
2022/03/31 06:51:05;;;;;;;20.60;8.68;;;14.80;99.90;;;;;;5011510;28;20399;-73
2022/03/31 06:53:31;;;;;;;24.10;8.45;;;14.80;99.90;;;;;;5011897;28;20076;-73
2022/03/31 06:55:57;;;;;;;31.30;9.48;;;14.90;99.90;;;;;;5012021;28;20475;-73
2022/03/31 06:58:25;;;;;;;27.13;9.38;;;15.00;99.90;;;;;;5012433;28;20785;-74
2022/03/31 07:00:52;;;;;;;34.28;8.80;;;15.00;99.90;;;;;;5011699;28;20022;-72
2022/03/31 07:03:18;;;;;;;27.75;7.90;;;15.00;99.90;;;;;;5012126;28;20025;-74
2022/03/31 07:05:44;;;;;;;22.35;7.60;;;15.00;99.10;;;;;;5011373;28;20030;-73
2022/03/31 07:08:10;;;;;;;24.40;7.63;;;15.10;99.40;;;;;;5011423;28;20530;-73
2022/03/31 07:10:36;;;;;;;26.45;8.73;;;15.20;99.10;;;;;;5011529;28;20057;-72
2022/03/31 07:13:02;;;;;;;27.20;8.05;;;15.30;99.50;;;;;;5011093;28;20384;-73
2022/03/31 07:15:28;;;;;;;23.85;8.18;;;15.30;99.20;;;;;;5010833;28;20022;-73
2022/03/31 07:17:55;;;;;;;24.38;8.30;;;15.40;99.40;;;;;;5009336;28;20029;-73
2022/03/31 07:20:23;;;;;;;17.83;7.57;;;15.40;98.30;;;;;;5010833;28;20022;-72
2022/03/31 07:22:49;;;;;;;19.70;8.23;;;15.50;98.00;;;;;;5010565;28;20036;-74
2022/03/31 07:25:17;;;;;;;21.77;7.40;;;15.50;98.30;;;;;;5009853;28;20032;-74
2022/03/31 07:27:47;;;;;;;21.65;8.68;;;15.50;97.70;;;;;;5011288;28;20496;-74
2022/03/31 07:30:14;;;;;;;22.83;8.43;;;15.50;97.60;;;;;;5012018;28;20117;-73
2022/03/31 07:32:51;;;;;;;27.20;12.90;;;15.50;96.70;;;;;;5011476;28;20088;-72
2022/03/31 07:35:18;;;;;;;31.10;11.60;;;15.50;97.40;;;;;;5010988;28;20029;-72
2022/03/31 07:37:44;;;;;;;33.65;11.40;;;15.50;97.60;;;;;;5011580;28;20033;-72
2022/03/31 07:40:10;;;;;;;30.70;10.85;;;15.50;98.10;;;;;;5011561;28;20030;-72
2022/03/31 07:42:36;;;;;;;26.70;9.65;;;15.50;97.40;;;;;;5009804;28;20144;-73
2022/03/31 07:45:03;;;;;;;18.35;6.65;;;15.60;97.10;;;;;;5010624;28;20132;-70
2022/03/31 07:47:29;;;;;;;20.20;8.13;;;15.60;97.30;;;;;;5010534;28;20034;-72
2022/03/31 07:49:55;;;;;;;25.52;9.52;;;15.70;96.70;;;;;;5011654;28;20076;-71
2022/03/31 07:52:21;;;;;;;30.48;9.55;;;15.70;96.30;;;;;;5011259;28;20473;-72
2022/03/31 07:54:48;;;;;;;23.38;8.43;;;15.80;96.30;;;;;;4994782;28;20535;-71
2022/03/31 07:57:14;;;;;;;31.10;8.15;;;15.80;95.90;;;;;;4992054;28;20027;-71
2022/03/31 07:59:40;;;;;;;22.63;7.00;;;15.90;95.50;;;;;;5003193;28;20030;-73
2022/03/31 08:02:06;;;;;;;19.73;6.78;;;15.90;95.60;;;;;;4992854;28;20032;-72
2022/03/31 08:04:32;;;;;;;23.77;7.93;;;15.90;94.60;;;;;;5011417;28;20469;-73
2022/03/31 08:06:59;;;;;;;20.15;7.38;;;15.90;93.90;;;;;;4995370;28;20033;-71
2022/03/31 08:09:25;;;;;;;15.73;6.90;;;15.90;94.30;;;;;;5010364;28;20021;-69
2022/03/31 08:11:52;;;;;;;17.02;7.57;;;16.00;94.70;;;;;;5009278;28;20034;-73
2022/03/31 08:14:19;;;;;;;24.58;9.18;;;15.90;94.20;;;;;;5010695;28;20022;-73
2022/03/31 08:16:51;;;;;;;19.75;7.28;;;15.90;94.60;;;;;;5011149;28;20096;-72
2022/03/31 08:19:18;;;;;;;22.38;8.20;;;16.00;94.30;;;;;;5010636;28;20030;-71
2022/03/31 08:21:46;;;;;;;21.52;9.00;;;16.00;94.80;;;;;;5010642;28;20034;-69
2022/03/31 08:24:13;;;;;;;26.15;8.48;;;16.00;94.60;;;;;;5010976;28;20037;-72
2022/03/31 08:26:41;;;;;;;29.13;8.10;;;16.00;94.90;;;;;;5008603;28;20014;-70
2022/03/31 08:29:11;;;;;;;24.17;8.63;;;16.00;94.60;;;;;;5028954;28;20037;-72
2022/03/31 08:31:38;;;;;;;23.45;7.97;;;16.10;94.70;;;;;;5013487;28;20464;-71
2022/03/31 08:34:05;;;;;;;23.80;8.07;;;16.10;94.70;;;;;;5014556;28;20026;-73
2022/03/31 08:36:32;;;;;;;22.05;7.07;;;16.10;94.50;;;;;;5025522;28;20511;-73
2022/03/31 08:38:58;;;;;;;20.80;7.93;;;16.20;93.70;;;;;;4992558;28;20606;-72
2022/03/31 08:41:27;;;;;;;20.55;9.00;;;16.20;94.00;;;;;;5007880;28;20023;-71
2022/03/31 08:43:54;;;;;;;22.67;8.75;;;16.20;94.20;;;;;;5004502;28;20052;-71
2022/03/31 08:46:22;;;;;;;25.83;7.78;;;16.20;94.50;;;;;;5013087;28;20042;-73
2022/03/31 08:48:49;;;;;;;25.80;7.40;;;16.20;94.20;;;;;;5013754;28;20186;-73
2022/03/31 08:51:15;;;;;;;22.65;7.68;;;16.20;94.60;;;;;;5008552;28;20026;-69
2022/03/31 08:53:42;;;;;;;22.52;8.50;;;16.20;94.30;;;;;;5007105;28;20119;-72
2022/03/31 08:56:10;;;;;;;19.17;8.02;;;16.20;94.00;;;;;;5005721;28;20480;-71
2022/03/31 08:58:37;;;;;;;28.80;8.52;;;16.10;93.80;;;;;;5009989;28;20073;-71
2022/03/31 09:01:03;;;;;;;22.55;8.00;;;16.00;93.30;;;;;;4993358;28;20042;-72
2022/03/31 09:03:47;;;;;;;25.35;8.52;;;16.00;94.00;;;;;;5011163;28;20030;-72
2022/03/31 09:06:24;;;;;;;25.33;8.75;;;16.10;94.20;;;;;;4994254;28;20033;-71
2022/03/31 09:09:04;;;;;;;16.55;7.15;;;16.00;94.60;;;;;;5008113;28;20034;-72
2022/03/31 09:11:33;;;;;;;24.45;8.15;;;16.00;94.80;;;;;;5028560;28;20113;-73
2022/03/31 09:14:01;;;;;;;25.52;7.40;;;15.90;94.40;;;;;;5013486;28;20543;-72
2022/03/31 09:16:30;;;;;;;28.60;8.35;;;16.00;94.70;;;;;;5012925;28;20018;-71
2022/03/31 09:19:01;;;;;;;18.80;7.22;;;15.90;94.60;;;;;;5011241;28;20108;-71
2022/03/31 09:21:27;;;;;;;22.52;8.07;;;16.00;94.50;;;;;;5011189;28;20160;-73
2022/03/31 09:23:53;;;;;;;28.90;8.27;;;16.00;94.70;;;;;;5012966;28;20112;-72
2022/03/31 09:26:19;;;;;;;23.27;9.32;;;16.00;94.80;;;;;;5009351;28;20177;-71
2022/03/31 09:28:47;;;;;;;22.08;7.43;;;15.90;95.00;;;;;;5012785;28;20060;-72
2022/03/31 09:31:24;;;;;;;22.30;7.93;;;15.90;94.70;;;;;;5011010;28;20030;-72
2022/03/31 09:33:55;;;;;;;24.75;8.27;;;15.90;94.80;;;;;;5005986;28;20495;-70
2022/03/31 09:36:23;;;;;;;27.05;9.25;;;15.90;95.10;;;;;;5009902;28;20092;-72
2022/03/31 09:38:59;;;;;;;16.05;6.90;;;15.90;96.30;;;;;;5010929;28;20487;-71
2022/03/31 09:41:29;;;;;;;21.63;8.20;;;15.80;98.40;;;;;;5011073;28;20101;-73
2022/03/31 09:44:15;;;;;;;21.15;8.30;;;15.70;99.60;;;;;;5009135;28;20018;-73
2022/03/31 09:46:53;;;;;;;27.83;10.38;;;15.70;99.90;;;;;;4991349;28;20045;-68
2022/03/31 09:49:25;;;;;;;21.13;7.43;;;15.60;99.90;;;;;;5004305;28;20030;-70
2022/03/31 09:51:59;;;;;;;21.10;7.45;;;15.60;99.90;;;;;;4991854;28;20367;-71
2022/03/31 09:54:29;;;;;;;16.80;6.65;;;15.60;99.90;;;;;;5006812;28;20041;-71
2022/03/31 09:57:04;;;;;;;28.83;7.68;;;15.60;99.90;;;;;;4992042;28;20062;-73
2022/03/31 09:59:39;;;;;;;19.63;7.07;;;15.60;99.90;;;;;;5014350;28;20029;-73
2022/03/31 10:02:06;;;;;;;21.67;7.47;;;15.50;99.90;;;;;;5004458;28;20031;-71
2022/03/31 10:04:34;;;;;;;23.95;7.93;;;15.60;99.90;;;;;;4993319;28;20483;-72
2022/03/31 10:07:02;;;;;;;22.55;7.78;;;15.60;99.90;;;;;;4994782;28;20041;-71
2022/03/31 10:09:28;;;;;;;25.23;7.25;;;15.50;99.90;;;;;;5007558;28;20022;-71
2022/03/31 10:12:16;;;;;;;22.92;8.52;;;15.40;99.90;;;;;;5008015;28;20042;-74
2022/03/31 10:15:05;;;;;;;21.77;7.55;;;15.20;99.90;;;;;;5009994;28;20030;-72
2022/03/31 10:17:34;;;;;;;25.92;9.27;;;15.20;99.90;;;;;;5011306;28;20115;-74
2022/03/31 10:20:08;;;;;;;23.83;8.77;;;15.10;99.90;;;;;;4994170;28;20030;-74
2022/03/31 10:25:22;;;;;;;20.40;8.98;;;15.10;99.90;;;;;;5006215;28;20084;-72
2022/03/31 10:27:50;;;;;;;27.20;8.73;;;15.20;99.90;;;;;;5012032;28;20034;-72
2022/03/31 10:30:25;;;;;;;21.40;7.25;;;15.20;99.90;;;;;;5010627;28;20029;-70
2022/03/31 10:33:03;;;;;;;20.08;6.63;;;15.40;99.90;;;;;;5011428;28;20515;-72
2022/03/31 10:35:33;;;;;;;13.38;5.93;;;15.40;99.90;;;;;;5001310;28;20399;-72
2022/03/31 10:38:13;;;;;;;15.95;5.63;;;15.40;99.90;;;;;;4991467;28;20045;-72
2022/03/31 10:40:44;;;;;;;21.85;6.22;;;15.50;99.90;;;;;;4994710;28;20061;-72
2022/03/31 10:43:26;;;;;;;15.45;5.45;;;15.40;99.90;;;;;;4994171;28;20149;-68
2022/03/31 10:45:58;;;;;;;24.33;8.70;;;15.40;99.90;;;;;;5025977;28;20100;-70
2022/03/31 10:48:27;;;;;;;16.95;7.45;;;15.50;99.90;;;;;;5011769;28;20080;-69
2022/03/31 10:51:06;;;;;;;41.97;21.15;;;15.50;99.90;;;;;;5011227;28;20376;-72
2022/03/31 10:53:34;;;;;;;84.32;41.85;;;15.50;99.90;;;;;;5005779;28;20092;-71
2022/03/31 10:56:31;;;;;;;89.88;46.17;;;15.50;99.90;;;;;;5011567;28;20066;-69
2022/03/31 10:59:02;;;;;;;32.53;11.65;;;15.50;99.90;;;;;;5026535;28;20057;-72
2022/03/31 11:01:37;;;;;;;34.22;14.52;;;15.50;99.90;;;;;;5011380;28;20037;-71
2022/03/31 11:04:08;;;;;;;19.70;7.65;;;15.50;99.90;;;;;;5011401;28;20022;-71
2022/03/31 11:06:47;;;;;;;20.38;6.57;;;15.50;99.90;;;;;;5011807;28;20068;-72
2022/03/31 11:09:20;;;;;;;21.15;6.53;;;15.50;99.90;;;;;;5010936;28;20018;-72
2022/03/31 11:11:56;;;;;;;16.40;6.65;;;15.40;99.90;;;;;;5010592;28;20053;-72
2022/03/31 11:14:22;;;;;;;23.95;8.63;;;15.40;99.90;;;;;;5000864;28;21593;-73
2022/03/31 11:16:48;;;;;;;38.55;18.40;;;15.40;99.90;;;;;;5011555;28;20026;-71
2022/03/31 11:19:19;;;;;;;19.30;8.38;;;15.40;99.90;;;;;;5010169;28;20040;-71
2022/03/31 11:21:51;;;;;;;30.63;13.40;;;15.40;99.90;;;;;;5025753;28;20088;-71
2022/03/31 11:24:43;;;;;;;21.63;8.02;;;15.40;99.90;;;;;;5025893;28;20068;-74
2022/03/31 11:27:12;;;;;;;21.80;6.50;;;15.40;99.90;;;;;;5007895;28;20430;-72
2022/03/31 11:29:38;;;;;;;25.00;8.63;;;15.40;99.90;;;;;;5010687;28;20357;-72
2022/03/31 11:32:05;;;;;;;22.02;8.65;;;15.40;99.90;;;;;;5026461;28;20034;-73
2022/03/31 11:34:30;;;;;;;19.83;7.88;;;15.30;99.90;;;;;;5011021;28;20379;-71
2022/03/31 11:37:19;;;;;;;14.13;5.43;;;15.30;99.90;;;;;;5011533;28;20022;-73
2022/03/31 11:39:46;;;;;;;15.80;5.07;;;15.40;99.90;;;;;;5007155;28;20026;-72
2022/03/31 11:42:14;;;;;;;20.55;5.65;;;15.40;99.90;;;;;;5011370;28;20033;-73
2022/03/31 11:44:43;;;;;;;17.48;5.85;;;15.40;99.90;;;;;;5011346;28;20057;-72
2022/03/31 11:47:23;;;;;;;15.32;4.80;;;15.40;99.90;;;;;;5010924;28;20053;-72
2022/03/31 11:50:22;;;;;;;16.83;5.20;;;15.40;99.90;;;;;;5011787;28;20034;-70
2022/03/31 11:52:49;;;;;;;15.60;4.93;;;15.40;99.90;;;;;;5010754;28;20120;-73
2022/03/31 11:55:14;;;;;;;10.98;4.88;;;15.40;99.90;;;;;;5010109;28;20480;-73
2022/03/31 11:57:57;;;;;;;16.65;5.38;;;15.40;99.90;;;;;;5011548;28;20116;-71
2022/03/31 12:00:29;;;;;;;16.33;5.38;;;15.50;99.90;;;;;;5002619;28;20108;-72
2022/03/31 12:02:56;;;;;;;14.45;4.90;;;15.50;99.90;;;;;;5009634;28;20061;-71
2022/03/31 12:05:29;;;;;;;15.18;4.72;;;15.60;99.90;;;;;;5014440;28;20049;-73
2022/03/31 12:07:55;;;;;;;13.82;5.28;;;15.70;99.90;;;;;;5013343;28;20042;-73
2022/03/31 12:10:25;;;;;;;18.77;5.65;;;15.70;99.90;;;;;;5014671;28;20152;-72
2022/03/31 12:12:55;;;;;;;13.63;4.65;;;15.80;99.90;;;;;;5012538;28;20061;-71
2022/03/31 12:15:30;;;;;;;20.33;7.85;;;15.90;99.90;;;;;;5029365;28;20030;-71
2022/03/31 12:18:07;;;;;;;20.48;6.32;;;16.10;99.90;;;;;;5014430;28;20022;-69
2022/03/31 12:20:36;;;;;;;13.63;5.60;;;16.30;99.90;;;;;;5014939;28;20026;-73
2022/03/31 12:23:31;;;;;;;15.20;5.20;;;16.50;99.90;;;;;;5014530;28;20100;-71
2022/03/31 12:26:13;;;;;;;17.63;5.00;;;16.70;99.90;;;;;;5013572;28;20503;-73
2022/03/31 12:28:44;;;;;;;12.68;4.57;;;16.90;99.90;;;;;;5014748;28;20029;-73
2022/03/31 12:31:31;;;;;;;17.50;5.57;;;17.00;99.90;;;;;;5031414;28;20033;-72
2022/03/31 12:33:58;;;;;;;13.82;5.10;;;17.10;99.90;;;;;;5013772;28;20076;-72
2022/03/31 12:36:26;;;;;;;14.73;4.82;;;17.10;99.90;;;;;;5014147;28;20067;-74
2022/03/31 12:38:54;;;;;;;18.88;5.40;;;17.10;99.90;;;;;;5012935;28;20105;-73
2022/03/31 12:41:34;;;;;;;14.75;5.20;;;17.20;99.90;;;;;;5014163;28;20041;-73
2022/03/31 12:44:08;;;;;;;10.98;3.33;;;17.20;99.90;;;;;;5013888;28;20030;-71
2022/03/31 12:46:37;;;;;;;18.77;6.18;;;17.20;99.90;;;;;;5013937;28;20046;-71